createdAt,value
2018-06-04T00:00:18.582Z,17.00
2018-06-04T00:02:47.852Z,17.00
2018-06-04T00:05:17.052Z,17.00
2018-06-04T00:07:46.327Z,17.00
2018-06-04T00:10:15.644Z,17.00
2018-06-04T00:12:44.876Z,16.90
2018-06-04T00:15:14.116Z,16.90
2018-06-04T00:17:43.348Z,16.90
2018-06-04T00:21:15.311Z,16.80
2018-06-04T00:23:44.517Z,16.80
2018-06-04T00:26:13.717Z,16.70
2018-06-04T00:28:42.936Z,16.60
2018-06-04T00:31:12.244Z,16.60
2018-06-04T00:33:41.477Z,16.60
2018-06-04T00:36:10.677Z,16.60
2018-06-04T00:38:39.900Z,16.50
2018-06-04T00:41:09.177Z,16.60
2018-06-04T00:43:38.404Z,16.50
2018-06-04T00:46:07.606Z,16.50
2018-06-04T00:48:36.845Z,16.50
2018-06-04T00:51:06.204Z,16.50
2018-06-04T00:53:35.497Z,16.50
2018-06-04T00:56:15.524Z,16.40
2018-06-04T00:58:44.756Z,16.20
2018-06-04T01:01:14.593Z,16.20
2018-06-04T01:03:43.998Z,16.10
2018-06-04T01:06:13.281Z,16.20
2018-06-04T01:08:43.186Z,16.20
2018-06-04T01:11:12.485Z,16.20
2018-06-04T01:13:41.721Z,16.20
2018-06-04T01:16:10.953Z,16.10
2018-06-04T01:18:40.185Z,16.10
2018-06-04T01:21:09.458Z,16.10
2018-06-04T01:23:38.756Z,16.00
2018-06-04T01:26:08.016Z,15.90
2018-06-04T01:28:37.249Z,15.90
2018-06-04T01:31:06.576Z,15.80
2018-06-04T01:33:35.848Z,15.80
2018-06-04T01:36:05.108Z,15.80
2018-06-04T01:38:34.350Z,15.80
2018-06-04T01:41:03.683Z,15.80
2018-06-04T01:43:32.883Z,15.80
2018-06-04T01:46:02.108Z,15.80
2018-06-04T01:48:31.352Z,15.80
2018-06-04T01:51:00.678Z,15.90
2018-06-04T01:53:29.905Z,15.90
2018-06-04T01:55:59.206Z,15.90
2018-06-04T01:58:28.476Z,15.90
2018-06-04T02:00:57.746Z,15.90
2018-06-04T02:03:27.000Z,16.00
2018-06-04T02:05:56.655Z,15.90
2018-06-04T02:08:25.917Z,16.00
2018-06-04T02:10:55.356Z,16.00
2018-06-04T02:13:24.590Z,16.00
2018-06-04T02:15:53.788Z,16.00
2018-06-04T02:18:23.007Z,16.00
2018-06-04T02:20:52.305Z,16.00
2018-06-04T02:23:21.549Z,16.10
2018-06-04T02:25:50.786Z,16.10
2018-06-04T02:28:20.080Z,16.20
2018-06-04T02:30:49.385Z,16.20
2018-06-04T02:33:18.609Z,16.20
2018-06-04T02:35:47.851Z,16.20
2018-06-04T02:38:17.563Z,16.30
2018-06-04T02:40:46.865Z,16.30
2018-06-04T02:43:16.113Z,16.30
2018-06-04T02:45:45.356Z,16.30
2018-06-04T02:48:14.594Z,16.30
2018-06-04T02:50:43.881Z,16.20
2018-06-04T02:53:13.113Z,16.30
2018-06-04T02:55:42.355Z,16.30
2018-06-04T02:58:11.629Z,16.30
2018-06-04T03:03:09.705Z,16.30
2018-06-04T03:05:38.941Z,16.30
2018-06-04T03:08:08.249Z,16.20
2018-06-04T03:10:37.575Z,16.30
2018-06-04T03:13:06.813Z,16.20
2018-06-04T03:15:36.041Z,16.20
2018-06-04T03:18:05.301Z,16.20
2018-06-04T03:20:34.545Z,16.30
2018-06-04T03:23:03.773Z,16.30
2018-06-04T03:25:32.992Z,16.30
2018-06-04T03:28:02.241Z,16.30
2018-06-04T03:30:31.569Z,16.30
2018-06-04T03:33:00.868Z,16.30
2018-06-04T03:35:30.097Z,16.30
2018-06-04T03:37:59.364Z,16.30
2018-06-04T03:40:28.673Z,16.30
2018-06-04T03:42:58.351Z,16.20
2018-06-04T03:45:27.585Z,16.20
2018-06-04T03:47:56.849Z,16.30
2018-06-04T03:50:26.248Z,16.30
2018-06-04T03:52:55.504Z,16.20
2018-06-04T03:55:24.753Z,16.30
2018-06-04T03:57:53.997Z,16.20
2018-06-04T04:00:23.248Z,16.20
2018-06-04T04:02:52.522Z,16.20
2018-06-04T04:05:21.804Z,16.20
2018-06-04T04:07:51.040Z,16.20
2018-06-04T04:10:21.397Z,16.20
2018-06-04T04:12:50.620Z,16.20
2018-06-04T04:15:20.033Z,16.20
2018-06-04T04:17:49.264Z,16.20
2018-06-04T04:20:18.601Z,16.20
2018-06-04T04:22:47.837Z,16.30
2018-06-04T04:25:17.156Z,16.30
2018-06-04T04:30:15.734Z,16.40
2018-06-04T04:32:45.038Z,16.50
2018-06-04T04:35:14.343Z,16.60
2018-06-04T04:37:43.834Z,16.60
2018-06-04T04:40:13.276Z,16.60
2018-06-04T04:42:43.705Z,16.70
2018-06-04T04:45:13.048Z,16.70
2018-06-04T04:47:42.374Z,16.80
2018-06-04T04:50:11.809Z,16.90
2018-06-04T04:52:41.118Z,16.90
2018-06-04T04:55:10.450Z,16.90
2018-06-04T04:57:39.711Z,17.00
2018-06-04T05:00:09.077Z,16.90
2018-06-04T05:02:38.369Z,16.90
2018-06-04T05:05:07.653Z,16.90
2018-06-04T05:07:36.952Z,17.00
2018-06-04T05:10:07.379Z,17.00
2018-06-04T05:12:36.692Z,17.20
2018-06-04T05:15:06.160Z,17.20
2018-06-04T05:17:35.529Z,17.30
2018-06-04T05:20:05.090Z,17.20
2018-06-04T05:22:34.312Z,17.20
2018-06-04T05:25:03.625Z,17.20
2018-06-04T05:30:01.713Z,17.10
2018-06-04T05:32:31.011Z,17.20
2018-06-04T05:35:00.412Z,17.20
2018-06-04T05:37:29.705Z,17.30
2018-06-04T05:40:01.095Z,17.40
2018-06-04T05:42:30.469Z,17.50
2018-06-04T05:47:28.761Z,17.50
2018-06-04T05:49:58.205Z,17.50
2018-06-04T05:54:56.376Z,17.50
2018-06-04T05:57:25.635Z,17.50
2018-06-04T05:59:55.013Z,17.40
2018-06-04T06:02:24.260Z,17.50
2018-06-04T06:07:22.320Z,17.50
2018-06-04T06:09:51.618Z,17.60
2018-06-04T06:12:20.977Z,17.70
2018-06-04T06:14:50.349Z,17.80
2018-06-04T06:17:19.665Z,17.80
2018-06-04T06:19:49.025Z,17.90
2018-06-04T06:22:18.452Z,18.00
2018-06-04T06:24:48.044Z,18.00
2018-06-04T06:27:17.319Z,18.20
2018-06-04T06:29:46.617Z,18.40
2018-06-04T06:32:15.941Z,18.60
2018-06-04T06:34:45.314Z,18.60
2018-06-04T06:37:14.552Z,18.50
2018-06-04T06:39:43.824Z,18.50
2018-06-04T06:42:14.153Z,18.40
2018-06-04T06:44:43.496Z,18.30
2018-06-04T06:47:12.947Z,18.40
2018-06-04T06:49:42.345Z,18.80
2018-06-04T06:52:11.731Z,19.40
2018-06-04T06:54:40.993Z,19.80
2018-06-04T06:59:39.181Z,19.40
2018-06-04T07:02:08.596Z,19.30
2018-06-04T07:04:37.909Z,19.40
2018-06-04T07:07:07.238Z,19.30
2018-06-04T07:09:36.665Z,19.70
2018-06-04T07:12:06.092Z,20.00
2018-06-04T07:14:35.401Z,20.20
2018-06-04T07:17:04.993Z,20.40
2018-06-04T07:19:34.397Z,20.80
2018-06-04T07:22:03.885Z,21.00
2018-06-04T07:24:33.209Z,20.80
2018-06-04T07:29:31.577Z,20.60
2018-06-04T07:32:01.025Z,20.60
2018-06-04T07:34:35.391Z,20.60
2018-06-04T07:37:04.894Z,20.50
2018-06-04T07:39:34.140Z,20.50
2018-06-04T07:42:03.569Z,20.50
2018-06-04T07:44:33.001Z,20.60
2018-06-04T07:47:02.262Z,20.90
2018-06-04T07:49:31.597Z,20.90
2018-06-04T07:52:01.076Z,20.70
2018-06-04T07:54:30.344Z,20.60
2018-06-04T07:56:59.689Z,20.90
2018-06-04T07:59:29.042Z,21.10
2018-06-04T08:01:58.454Z,21.40
2018-06-04T08:04:27.866Z,21.60
2018-06-04T08:06:57.265Z,21.80
2018-06-04T08:09:26.599Z,21.90
2018-06-04T08:11:55.961Z,21.90
2018-06-04T08:14:25.333Z,22.40
2018-06-04T08:16:54.633Z,22.80
2018-06-04T08:19:24.016Z,22.80
2018-06-04T08:21:53.534Z,22.70
2018-06-04T08:24:23.044Z,22.50
2018-06-04T08:26:52.407Z,22.40
2018-06-04T08:29:21.795Z,22.10
2018-06-04T08:31:51.089Z,22.00
2018-06-04T08:34:21.445Z,22.20
2018-06-04T08:36:50.795Z,22.20
2018-06-04T08:39:20.159Z,22.30
2018-06-04T08:41:49.585Z,22.30
2018-06-04T08:44:18.970Z,22.30
2018-06-04T08:46:48.273Z,22.20
2018-06-04T08:49:17.588Z,22.20
2018-06-04T08:51:46.990Z,22.30
2018-06-04T08:54:16.283Z,22.40
2018-06-04T08:56:46.014Z,22.70
2018-06-04T08:59:15.348Z,23.00
2018-06-04T09:01:44.713Z,23.20
2018-06-04T09:04:14.156Z,23.20
2018-06-04T09:06:43.505Z,23.10
2018-06-04T09:09:13.008Z,23.60
2018-06-04T09:11:42.338Z,24.10
2018-06-04T09:14:11.783Z,24.70
2018-06-04T09:16:41.165Z,25.20
2018-06-04T09:19:10.524Z,25.00
2018-06-04T09:21:39.860Z,24.70
2018-06-04T09:24:09.265Z,24.50
2018-06-04T09:26:38.560Z,24.30
2018-06-04T09:29:08.126Z,24.10
2018-06-04T09:31:37.585Z,23.60
2018-06-04T09:34:06.927Z,23.30
2018-06-04T09:36:36.294Z,23.10
2018-06-04T09:39:08.240Z,22.90
2018-06-04T09:41:37.677Z,22.90
2018-06-04T09:44:07.014Z,22.80
2018-06-04T09:46:36.301Z,22.90
2018-06-04T09:49:05.714Z,22.80
2018-06-04T09:51:35.049Z,22.60
2018-06-04T09:54:04.350Z,22.50
2018-06-04T09:56:33.661Z,22.70
2018-06-04T09:59:03.020Z,23.00
2018-06-04T10:01:32.440Z,23.40
2018-06-04T10:04:01.713Z,23.60
2018-06-04T10:06:31.028Z,23.70
2018-06-04T10:09:00.372Z,23.80
2018-06-04T10:11:30.149Z,24.10
2018-06-04T10:13:59.552Z,24.80
2018-06-04T10:16:28.868Z,25.20
2018-06-04T10:18:58.231Z,24.90
2018-06-04T10:21:27.633Z,25.10
2018-06-04T10:23:56.987Z,25.30
2018-06-04T10:26:26.346Z,25.00
2018-06-04T10:28:55.879Z,24.90
2018-06-04T10:31:25.394Z,25.30
2018-06-04T10:33:54.875Z,26.00
2018-06-04T10:36:24.425Z,26.40
2018-06-04T10:38:53.713Z,26.10
2018-06-04T10:43:52.350Z,25.80
2018-06-04T10:46:21.660Z,25.60
2018-06-04T10:48:51.030Z,25.20
2018-06-04T10:51:20.409Z,24.90
2018-06-04T10:53:49.724Z,24.50
2018-06-04T10:56:19.032Z,24.10
2018-06-04T10:58:48.306Z,24.00
2018-06-04T11:01:17.725Z,23.90
2018-06-04T11:03:46.965Z,23.80
2018-06-04T11:06:16.556Z,23.80
2018-06-04T11:08:46.052Z,23.50
2018-06-04T11:11:15.409Z,23.20
2018-06-04T11:13:44.761Z,23.30
2018-06-04T11:16:14.386Z,23.10
2018-06-04T11:18:43.726Z,23.10
2018-06-04T11:21:13.165Z,23.20
2018-06-04T11:23:42.589Z,23.30
2018-06-04T11:26:11.905Z,23.40
2018-06-04T11:28:41.360Z,23.50
2018-06-04T11:31:10.777Z,23.80
2018-06-04T11:33:40.056Z,24.20
2018-06-04T11:36:09.355Z,24.20
2018-06-04T11:38:38.811Z,24.10
2018-06-04T11:41:08.237Z,24.20
2018-06-04T11:43:37.525Z,24.20
2018-06-04T11:46:06.977Z,24.40
2018-06-04T11:48:51.202Z,24.20
2018-06-04T11:51:21.949Z,24.20
2018-06-04T11:53:51.833Z,24.20
2018-06-04T11:56:21.202Z,24.60
2018-06-04T11:58:51.156Z,25.30
2018-06-04T12:01:20.689Z,25.60
2018-06-04T12:03:50.272Z,26.30
2018-06-04T12:06:19.564Z,26.90
2018-06-04T12:08:48.949Z,27.60
2018-06-04T12:11:18.469Z,28.10
2018-06-04T12:13:47.872Z,28.50
2018-06-04T12:16:17.158Z,28.70
2018-06-04T12:18:46.509Z,28.60
2018-06-04T12:21:16.260Z,28.50
2018-06-04T12:23:45.640Z,29.10
2018-06-04T12:26:15.071Z,29.60
2018-06-04T12:28:44.444Z,29.80
2018-06-04T12:31:14.894Z,29.60
2018-06-04T12:33:44.265Z,29.80
2018-06-04T12:36:13.661Z,29.20
2018-06-04T12:38:43.091Z,28.00
2018-06-04T12:41:13.474Z,27.40
2018-06-04T12:43:42.879Z,27.70
2018-06-04T12:46:12.255Z,28.50
2018-06-04T12:48:41.738Z,28.60
2018-06-04T12:51:11.219Z,28.30
2018-06-04T12:53:40.605Z,28.10
2018-06-04T12:58:38.806Z,27.60
2018-06-04T13:01:08.276Z,27.60
2018-06-04T13:03:37.553Z,28.20
2018-06-04T13:06:06.896Z,28.50
2018-06-04T13:08:36.226Z,28.90
2018-06-04T13:11:05.572Z,29.60
2018-06-04T13:13:34.923Z,29.50
2018-06-04T13:16:04.267Z,28.40
2018-06-04T13:18:33.567Z,27.80
2018-06-04T13:21:02.908Z,27.00
2018-06-04T13:23:32.275Z,27.10
2018-06-04T13:26:01.641Z,27.00
2018-06-04T13:28:30.974Z,26.60
2018-06-04T13:31:00.361Z,26.40
2018-06-04T13:33:29.612Z,26.00
2018-06-04T13:35:58.912Z,25.90
2018-06-04T13:38:28.313Z,25.60
2018-06-04T13:40:57.697Z,25.20
2018-06-04T13:43:26.997Z,24.90
2018-06-04T13:45:56.376Z,25.00
2018-06-04T13:48:25.668Z,24.90
2018-06-04T13:50:55.097Z,24.90
2018-06-04T13:53:30.936Z,24.70
2018-06-04T13:56:00.269Z,24.60
2018-06-04T13:58:29.816Z,24.50
2018-06-04T14:00:59.216Z,24.40
2018-06-04T14:03:28.511Z,24.30
2018-06-04T14:05:57.884Z,24.30
2018-06-04T14:10:56.100Z,24.40
2018-06-04T14:13:25.433Z,24.50
2018-06-04T14:15:54.775Z,24.50
2018-06-04T14:18:24.131Z,24.50
2018-06-04T14:20:53.493Z,24.70
2018-06-04T14:23:22.856Z,24.80
2018-06-04T14:25:52.507Z,25.10
2018-06-04T14:28:21.896Z,25.90
2018-06-04T14:33:19.936Z,27.40
2018-06-04T14:35:49.251Z,28.10
2018-06-04T14:38:18.540Z,28.70
2018-06-04T14:40:47.860Z,28.50
2018-06-04T14:43:17.213Z,28.00
2018-06-04T14:45:46.534Z,27.50
2018-06-04T14:48:15.901Z,26.80
2018-06-04T14:50:45.884Z,26.50
2018-06-04T14:53:15.172Z,26.30
2018-06-04T14:55:44.463Z,26.60
2018-06-04T14:58:13.928Z,27.40
2018-06-04T15:00:43.268Z,28.00
2018-06-04T15:03:12.595Z,28.00
2018-06-04T15:05:41.951Z,28.50
2018-06-04T15:08:11.296Z,29.10
2018-06-04T15:10:40.579Z,29.90
2018-06-04T15:13:09.911Z,30.60
2018-06-04T15:15:39.219Z,30.00
2018-06-04T15:18:08.651Z,28.90
2018-06-04T15:20:37.984Z,28.50
2018-06-04T15:23:07.399Z,28.00
2018-06-04T15:25:36.807Z,27.40
2018-06-04T15:28:06.140Z,27.90
2018-06-04T15:30:36.620Z,27.60
2018-06-04T15:33:05.916Z,27.30
2018-06-04T15:35:35.247Z,27.90
2018-06-04T15:38:04.721Z,28.40
2018-06-04T15:40:34.060Z,29.20
2018-06-04T15:45:32.205Z,31.10
2018-06-04T15:48:01.730Z,31.60
2018-06-04T15:50:32.118Z,31.00
2018-06-04T15:53:01.464Z,30.00
2018-06-04T15:55:30.811Z,29.00
2018-06-04T15:58:00.269Z,28.00
2018-06-04T16:00:29.588Z,27.30
2018-06-04T16:02:59.049Z,26.60
2018-06-04T16:05:28.487Z,26.20
2018-06-04T16:07:58.135Z,25.60
2018-06-04T16:10:27.512Z,25.30
2018-06-04T16:12:57.493Z,25.00
2018-06-04T16:15:26.786Z,24.70
2018-06-04T16:17:56.924Z,24.50
2018-06-04T16:20:26.457Z,24.40
2018-06-04T16:22:55.749Z,24.40
2018-06-04T16:25:25.041Z,24.30
2018-06-04T16:27:54.437Z,24.20
2018-06-04T16:30:27.486Z,24.00
2018-06-04T16:32:58.037Z,23.80
2018-06-04T16:35:28.393Z,23.80
2018-06-04T16:37:58.779Z,23.70
2018-06-04T16:40:30.130Z,23.60
2018-06-04T16:43:00.553Z,23.50
2018-06-04T16:45:30.916Z,23.40
2018-06-04T16:48:01.174Z,23.30
2018-06-04T16:50:31.129Z,23.40
2018-06-04T16:53:01.652Z,23.40
2018-06-04T16:55:30.981Z,23.20
2018-06-04T16:58:00.384Z,23.00
2018-06-04T17:00:29.743Z,22.70
2018-06-04T17:02:59.056Z,22.50
2018-06-04T17:05:28.410Z,22.30
2018-06-04T17:07:57.688Z,22.10
2018-06-04T17:10:27.165Z,21.80
2018-06-04T17:12:56.904Z,21.50
2018-06-04T17:15:26.244Z,21.20
2018-06-04T17:17:55.553Z,21.10
2018-06-04T17:20:25.028Z,21.00
2018-06-04T17:22:54.358Z,20.90
2018-06-04T17:25:23.683Z,20.80
2018-06-04T17:27:53.029Z,20.70
2018-06-04T17:30:22.436Z,20.60
2018-06-04T17:32:51.816Z,20.50
2018-06-04T17:35:21.164Z,20.40
2018-06-04T17:37:50.765Z,20.40
2018-06-04T17:40:20.406Z,20.40
2018-06-04T17:42:49.767Z,20.40
2018-06-04T17:45:19.536Z,20.30
2018-06-04T17:47:48.881Z,20.20
2018-06-04T17:50:18.301Z,20.10
2018-06-04T17:52:47.595Z,20.10
2018-06-04T17:55:16.925Z,20.00
2018-06-04T17:57:46.241Z,20.00
2018-06-04T18:00:15.605Z,19.90
2018-06-04T18:02:44.923Z,19.80
2018-06-04T18:05:14.409Z,19.80
2018-06-04T18:07:43.729Z,19.70
2018-06-04T18:10:13.204Z,19.80
2018-06-04T18:12:42.597Z,19.70
2018-06-04T18:15:11.917Z,19.70
2018-06-04T18:17:41.680Z,19.80
2018-06-04T18:20:11.145Z,19.80
2018-06-04T18:22:40.528Z,19.80
2018-06-04T18:25:09.825Z,19.80
2018-06-04T18:27:39.128Z,19.60
2018-06-04T18:30:08.632Z,19.70
2018-06-04T18:32:37.971Z,19.60
2018-06-04T18:35:09.472Z,19.50
2018-06-04T18:37:40.830Z,19.50
2018-06-04T18:40:13.061Z,19.60
2018-06-04T18:42:44.416Z,19.60
2018-06-04T18:45:15.497Z,19.60
2018-06-04T18:47:46.278Z,19.50
2018-06-04T18:50:18.282Z,19.40
2018-06-04T18:52:47.719Z,19.30
2018-06-04T18:55:17.102Z,19.30
2018-06-04T18:57:46.409Z,19.20
2018-06-04T19:00:15.910Z,19.20
2018-06-04T19:02:45.239Z,19.20
2018-06-04T19:05:14.645Z,19.10
2018-06-04T19:07:43.969Z,19.10
2018-06-04T19:10:13.504Z,19.10
2018-06-04T19:12:42.842Z,19.10
2018-06-04T19:15:12.184Z,19.10
2018-06-04T19:20:10.750Z,18.90
2018-06-04T19:22:40.070Z,19.00
2018-06-04T19:25:09.417Z,19.00
2018-06-04T19:27:38.692Z,19.00
2018-06-04T19:30:08.131Z,18.90
2018-06-04T19:32:37.519Z,18.90
2018-06-04T19:35:07.220Z,18.90
2018-06-04T19:37:36.660Z,18.90
2018-06-04T19:40:06.007Z,18.90
2018-06-04T19:42:35.393Z,18.90
2018-06-04T19:45:04.787Z,18.90
2018-06-04T19:47:34.168Z,18.90
2018-06-04T19:50:03.600Z,18.90
2018-06-04T19:52:33.377Z,18.90
2018-06-04T19:55:02.733Z,19.00
2018-06-04T19:57:32.049Z,18.90
2018-06-04T20:00:01.465Z,18.90
2018-06-04T20:02:30.808Z,18.80
2018-06-04T20:05:00.132Z,18.80
2018-06-04T20:07:29.512Z,18.80
2018-06-04T20:09:58.929Z,18.80
2018-06-04T20:12:28.280Z,18.80
2018-06-04T20:14:57.564Z,18.80
2018-06-04T20:17:26.882Z,18.80
2018-06-04T20:19:56.279Z,18.70
2018-06-04T20:22:25.557Z,18.80
2018-06-04T20:27:23.593Z,18.70
2018-06-04T20:29:52.916Z,18.70
2018-06-04T20:32:22.298Z,18.60
2018-06-04T20:34:51.976Z,18.50
2018-06-04T20:37:21.256Z,18.50
2018-06-04T20:39:50.745Z,18.60
2018-06-04T20:42:20.171Z,18.50
2018-06-04T20:44:49.526Z,18.50
2018-06-04T20:47:18.748Z,18.50
2018-06-04T20:49:48.024Z,18.40
2018-06-04T20:52:17.253Z,18.40
2018-06-04T20:54:46.520Z,18.40
2018-06-04T20:57:16.091Z,18.40
2018-06-04T20:59:45.528Z,18.30
2018-06-04T21:02:15.934Z,18.30
2018-06-04T21:04:45.259Z,18.30
2018-06-04T21:07:14.729Z,18.30
2018-06-04T21:09:43.982Z,18.20
2018-06-04T21:12:13.353Z,18.20
2018-06-04T21:14:42.764Z,18.10
2018-06-04T21:17:12.062Z,18.10
2018-06-04T21:19:41.307Z,18.00
2018-06-04T21:22:10.797Z,18.00
2018-06-04T21:24:40.060Z,18.10
2018-06-04T21:27:09.992Z,18.10
2018-06-04T21:29:39.527Z,18.20
2018-06-04T21:32:08.779Z,18.20
2018-06-04T21:34:38.062Z,18.30
2018-06-04T21:37:07.496Z,18.30
2018-06-04T21:39:36.892Z,18.20
2018-06-04T21:42:06.226Z,18.20
2018-06-04T21:44:35.496Z,18.30
2018-06-04T21:47:05.009Z,18.20
2018-06-04T21:49:34.236Z,18.20
2018-06-04T21:52:03.648Z,18.30
2018-06-04T21:54:33.058Z,18.20
2018-06-04T21:57:02.404Z,18.20
2018-06-04T21:59:31.851Z,18.20
2018-06-04T22:02:01.281Z,18.20
2018-06-04T22:04:30.784Z,18.20
2018-06-04T22:07:00.016Z,18.20
2018-06-04T22:09:29.281Z,18.20
2018-06-04T22:11:58.620Z,18.20
2018-06-04T22:14:27.883Z,18.10
2018-06-04T22:16:57.188Z,18.10
2018-06-04T22:19:26.448Z,18.00
2018-06-04T22:21:55.816Z,18.00
2018-06-04T22:24:25.045Z,17.90
2018-06-04T22:26:54.315Z,18.00
2018-06-04T22:29:23.539Z,18.00
2018-06-04T22:31:52.807Z,18.00
2018-06-04T22:34:22.040Z,18.00
2018-06-04T22:36:51.280Z,18.00
2018-06-04T22:39:20.527Z,18.00
2018-06-04T22:41:49.812Z,18.00
2018-06-04T22:44:19.041Z,17.80
2018-06-04T22:46:48.334Z,17.80
2018-06-04T22:49:17.576Z,17.70
2018-06-04T22:51:46.881Z,17.60
2018-06-04T22:54:16.112Z,17.60
2018-06-04T22:56:45.333Z,17.60
2018-06-04T22:59:14.608Z,17.60
2018-06-04T23:01:43.905Z,17.50
2018-06-04T23:04:13.109Z,17.40
2018-06-04T23:06:42.336Z,17.40
2018-06-04T23:09:11.612Z,17.30
2018-06-04T23:11:40.877Z,17.30
2018-06-04T23:14:10.104Z,17.30
2018-06-04T23:16:39.328Z,17.20
2018-06-04T23:19:08.572Z,17.10
2018-06-04T23:21:37.867Z,17.00
2018-06-04T23:24:07.193Z,17.00
2018-06-04T23:26:36.430Z,17.00
2018-06-04T23:31:34.409Z,17.10
2018-06-04T23:34:03.652Z,17.10
2018-06-04T23:36:32.877Z,17.10
2018-06-04T23:39:02.188Z,17.10
2018-06-04T23:41:31.477Z,16.90
2018-06-04T23:44:00.709Z,16.90
2018-06-04T23:46:29.948Z,17.00
2018-06-04T23:48:59.212Z,17.00
2018-06-04T23:51:28.484Z,17.20
2018-06-04T23:53:57.705Z,17.20
2018-06-04T23:56:27.015Z,17.20
2018-06-04T23:58:56.277Z,17.30
